• Join FlightAware (Why Join?)
  • Login
  • US Flag 
12:34PM EDT


 

Airport Tracker/Info


-or-


 

Live Flight TrackerFlight Track Log ✈ GJS6221 ✈ 11-Oct-2013 ✈ KLGA - KSAV

Flight Track Log - Related Links

Times and Time Zones

All times are in EDT time to prevent confusion due to time zone crossing. See the GJS6221 flight status page for this flight to view local times or setup timezone preferences in your user account.

Time Position Orientation Groundspeed Altitude Reporting Facility
EDT Latitude Longitude Course Direction KTS MPH feet Rate Location/Type
03:20PM 40.7167 -73.8167 37° Northeast 191 220 3,300  Level New York TRACON
03:21PM 40.7667 -73.7667 37° Northeast 226 260 6,000 2,700 Climbing New York TRACON
03:22PM 40.8167 -73.7667 360° North 261 300 8,500 2,520 Climbing New York TRACON
03:23PM 40.8667 -73.8500 308° West 284 327 10,900 1,620 Climbing New York TRACON
03:24PM 40.8667 -73.9500 270° West 314 361 12,000 480 Climbing New York TRACON
03:25PM 40.8000 -74.0000 210° Southwest 302 348 12,000  Level New York TRACON
03:26PM 40.7500 -74.1000 237° Southwest 307 353 12,000  Level New York TRACON
03:27PM 40.7167 -74.1833 242° Southwest 313 360 12,000 1,140 Level New York TRACON
03:28PM 40.6500 -74.2667 223° Southwest 318 366 14,200 2,280 Climbing New York TRACON
03:29PM 40.5833 -74.3500 224° Southwest 326 375 16,600 1,320 Climbing New York TRACON
03:30PM 40.5167 -74.4333 224° Southwest 322 371 17,000 180 Climbing New York TRACON
03:31PM 40.4500 -74.3833 150° Southeast 316 364 17,000  Level New York TRACON
03:32PM 40.4167 -74.2833 114° Southeast 307 353 17,000  Level New York TRACON
03:34PM 40.3064 -74.2383 163° South 302 348 17,000 720 Level New York Center
03:36PM 40.1225 -74.2431 181° South 357 411 19,500 1,320 Climbing Washington Center
03:36PM 40.0144 -74.2533 184° South 379 436 20,900 1,440 Climbing Washington Center
03:38PM 39.9214 -74.3308 213° Southwest 379 436 22,400 1,440 Climbing Washington Center
03:39PM 39.8286 -74.4189 216° Southwest 392 451 23,900 1,320 Climbing Washington Center
03:39PM 39.7483 -74.5228 225° Southwest 408 470 25,100 1,200 Climbing Washington Center
03:41PM 39.6639 -74.6344 226° Southwest 419 482 26,300 960 Climbing Washington Center
03:42PM 39.5772 -74.7489 226° Southwest 430 495 27,100 780 Climbing Washington Center
03:43PM 39.4822 -74.8764 226° Southwest 440 506 27,900 840 Climbing Washington Center
03:43PM 39.3911 -74.9928 225° Southwest 451 519 28,800 840 Climbing Washington Center
03:45PM 39.2978 -75.1089 224° Southwest 461 531 29,600 780 Climbing Washington Center
03:46PM 39.1856 -75.2033 213° Southwest 472 543 30,400 780 Climbing Washington Center
03:47PM 39.0692 -75.2842 208° Southwest 477 549 31,200 840 Climbing Washington Center
03:48PM 38.9569 -75.3728 212° Southwest 477 549 32,100 960 Climbing Washington Center
03:48PM 38.8464 -75.4611 212° Southwest 477 549 33,100 900 Climbing Washington Center
03:50PM 38.7319 -75.5439 209° Southwest 477 549 34,000 420 Climbing Washington Center
03:51PM 38.6194 -75.6289 211° Southwest 472 543 34,000  Level Washington Center
03:52PM 38.5067 -75.7136 210° Southwest 472 543 34,000  Level Washington Center
03:53PM 38.3961 -75.7958 210° Southwest 466 536 34,000 60 Level Washington Center
03:53PM 38.2958 -75.8642 208° Southwest 461 531 34,200 600 Climbing Washington Center
03:55PM 38.1853 -75.9458 210° Southwest 466 536 35,200 1,020 Climbing Washington Center
03:56PM 38.0786 -76.0269 211° Southwest 460 529 36,300 1,020 Climbing Washington Center
03:57PM 37.9719 -76.1053 210° Southwest 455 524 37,300 840 Climbing Washington Center
03:57PM 37.8672 -76.1836 211° Southwest 449 517 38,000 300 Climbing Washington Center
03:58PM 37.7606 -76.2589 209° Southwest 449 517 38,000  Level Washington Center
04:00PM 37.6536 -76.3367 210° Southwest 449 517 38,000  Level Washington Center
04:01PM 37.5447 -76.4169 210° Southwest 449 517 38,000  Level Washington Center
04:02PM 37.4356 -76.4942 209° Southwest 449 517 38,000  Level Washington Center
04:03PM 37.3267 -76.5711 209° Southwest 449 517 38,000  Level Washington Center
04:04PM 37.2175 -76.6508 210° Southwest 449 517 38,000  Level Washington Center
04:05PM 37.1083 -76.7272 209° Southwest 449 517 38,000  Level Washington Center
04:05PM 36.9989 -76.8089 211° Southwest 449 517 38,000  Level Washington Center
04:06PM 36.8961 -76.8828 210° Southwest 449 517 38,000  Level Washington Center
04:08PM 36.7867 -76.9586 209° Southwest 449 517 38,000  Level Washington Center
04:09PM 36.6814 -77.0450 213° Southwest 449 517 38,000  Level Washington Center
04:10PM 36.5864 -77.1361 218° Southwest 449 517 38,000  Level Washington Center
04:11PM 36.4892 -77.2325 219° Southwest 449 517 38,000  Level Washington Center
04:11PM 36.3939 -77.3258 218° Southwest 449 517 38,000  Level Washington Center
04:13PM 36.2964 -77.4217 218° Southwest 449 517 38,000  Level Washington Center
04:14PM 36.1928 -77.5222 218° Southwest 449 517 38,000  Level Washington Center
04:14PM 36.0950 -77.6175 218° Southwest 449 517 38,000  Level Washington Center
04:16PM 35.9997 -77.7100 218° Southwest 454 522 38,000  Level Washington Center
04:17PM 35.9000 -77.8050 218° Southwest 449 517 38,000  Level Washington Center
04:17PM 35.8042 -77.8944 217° Southwest 449 517 38,000  Level Washington Center
04:18PM 35.7064 -77.9861 217° Southwest 449 517 38,000  Level Washington Center
04:20PM 35.6086 -78.0803 218° Southwest 449 517 38,000  Level Washington Center
04:21PM 35.5106 -78.1717 217° Southwest 449 517 38,000  Level Washington Center
04:22PM 35.4106 -78.2628 217° Southwest 449 517 38,000  Level Washington Center
04:23PM 35.3144 -78.3564 218° Southwest 449 517 38,000  Level Washington Center
04:24PM 35.2269 -78.4397 218° Southwest 449 517 38,000  Level Washington Center
04:25PM 35.1267 -78.5328 217° Southwest 449 517 38,000  Level Washington Center
04:25PM 35.0328 -78.6231 218° Southwest 449 517 38,000  Level Washington Center
04:29PM 34.6333 -78.9892 217° Southwest 474 545 38,000  Level Jacksonville Center
04:30PM 34.5319 -79.0819 217° Southwest 474 545 38,000  Level Jacksonville Center
04:31PM 34.4328 -79.1819 220° Southwest 469 540 38,000  Level Jacksonville Center
04:32PM 34.3311 -79.2742 217° Southwest 469 540 38,000  Level Jacksonville Center
04:33PM 34.2375 -79.3586 217° Southwest 469 540 38,000  Level Jacksonville Center
04:34PM 34.1378 -79.4453 216° Southwest 468 539 38,000 -540 Level Jacksonville Center
04:35PM 34.0339 -79.5422 218° Southwest 461 531 37,000 -1,020 Descending Jacksonville Center
04:36PM 33.9258 -79.6364 216° Southwest 475 547 36,000 -1,020 Descending Jacksonville Center
04:37PM 33.8219 -79.7328 218° Southwest 475 547 35,000 -1,020 Descending Jacksonville Center
04:38PM 33.7156 -79.8264 216° Southwest 475 547 34,000 -1,020 Descending Jacksonville Center
04:39PM 33.6114 -79.9200 217° Southwest 475 547 33,000 -1,020 Descending Jacksonville Center
04:40PM 33.5072 -80.0131 217° Southwest 475 547 32,000 -1,020 Descending Jacksonville Center
04:41PM 33.4028 -80.1061 217° Southwest 475 547 31,000 -1,620 Descending Jacksonville Center
04:42PM 33.2983 -80.1986 217° Southwest 475 547 28,800 -2,640 Descending Jacksonville Center
04:43PM 33.1897 -80.2939 216° Southwest 466 536 25,800 -2,520 Descending Jacksonville Center
04:44PM 33.1100 -80.3656 217° Southwest 435 501 23,800 -2,100 Descending Jacksonville Center
04:45PM 33.0031 -80.4578 216° Southwest 435 501 21,600 -2,100 Descending Jacksonville Center
04:46PM 32.9086 -80.5394 216° Southwest 430 495 19,600 -2,040 Descending Jacksonville Center
04:47PM 32.8164 -80.6211 217° Southwest 430 495 17,600 -2,040 Descending Jacksonville Center
04:48PM 32.7236 -80.6997 215° Southwest 425 489 15,600 -2,040 Descending Jacksonville Center
04:49PM 32.6353 -80.7783 217° Southwest 402 463 13,600 -2,040 Descending Jacksonville Center
04:50PM 32.5572 -80.8469 217° Southwest 375 432 11,600 -1,740 Descending Jacksonville Center
04:51PM 32.4808 -80.9075 214° Southwest 343 395 10,200 -1,500 Descending Jacksonville Center
04:52PM 32.4125 -80.9436 204° Southwest 314 361 8,600 -1,920 Descending Jacksonville Center
04:53PM 32.3294 -80.9797 200° South 295 339 6,400 -2,100 Descending Jacksonville Center
04:54PM 32.2611 -81.0131 202° Southwest 276 318 4,500 -1,800 Descending Jacksonville Center
04:55PM 32.1989 -81.0439 203° Southwest 254 292 2,900 -1,260 Descending Jacksonville Center
04:56PM 32.1578 -81.0767 214° Southwest 220 253 2,000 -900 Descending Jacksonville Center
04:57PM 32.1269 -81.1189 229° Southwest 189 217 1,100 -840 Descending Jacksonville Center
04:58PM 32.1278 -81.1706 271° West 145 167 400 -420 Descending Jacksonville Center
04:59PM 32.1136 -81.2125 248° West 145 167 300 -120 Descending Jacksonville Center
05:01PM 32.1167 -81.2000 North  Level FlightAware Approximate
05:08PM 32.1276 -81.2021 North  Level Estimated